Terminal Aerodrome Forecast
Issued by NWS Sioux Falls, SD

Home | Current Version | Previous Version | Graphics & Text | Print | Product List | Glossary On
Versions: 1 2 3 4 5 6 7 8 9 10 11 12 13 14 15 16
000
FTUS43 KFSD 281739
TAFHON
TAF
KHON 281739Z 2818/2918 16015G23KT P6SM FEW200
     FM290200 16020G28KT P6SM SCT120 WS020/20050KT
     FM290500 20012G23KT P6SM -SHRA BKN080
     FM290800 29016G32KT P6SM SCT050
     FM291000 31022G37KT P6SM BKN045
     FM291700 32020G30KT P6SM SCT040=

USA.gov is the U.S. government's official web portal to all federal, state and local government web resources and services.